Time;durP1;ratioP1;P1;durP2;ratioP2;P2;SDS_P1;SDS_P2;PMS_P1;PMS_P2;Temp;Humidity;BMP_temperature;BMP_pressure;BME280_temperature;BME280_humidity;BME280_pressure;Samples;Min_cycle;Max_cycle;Signal;HPM_P1;HPM_P2
2020/12/20 00:01:38;;;;;;;7.23;6.30;;;9.00;86.90;;;;;;5035866;28;20174;-38
2020/12/20 00:04:04;;;;;;;9.50;7.03;;;9.00;87.00;;;;;;5036540;28;20490;-39
2020/12/20 00:06:37;;;;;;;7.40;6.70;;;8.90;87.50;;;;;;5035865;28;20437;-37
2020/12/20 00:09:13;;;;;;;7.33;6.60;;;8.90;88.30;;;;;;5035782;28;20484;-39
2020/12/20 00:11:40;;;;;;;9.17;7.67;;;8.90;88.70;;;;;;5036060;28;20662;-38
2020/12/20 00:16:50;;;;;;;7.10;6.40;;;8.80;89.20;;;;;;5035784;28;20495;-37
2020/12/20 00:19:15;;;;;;;7.00;6.30;;;8.80;90.00;;;;;;5035670;28;20409;-37
2020/12/20 00:21:41;;;;;;;7.93;6.70;;;8.80;90.10;;;;;;5036097;28;20171;-37
2020/12/20 00:24:09;;;;;;;7.70;6.90;;;8.80;90.30;;;;;;5035733;28;20268;-38
2020/12/20 00:26:35;;;;;;;7.67;6.90;;;8.80;90.40;;;;;;5035640;28;20522;-38
2020/12/20 00:29:00;;;;;;;10.17;7.03;;;8.80;90.40;;;;;;5035461;28;20701;-37
2020/12/20 00:31:26;;;;;;;9.73;8.27;;;8.80;90.40;;;;;;5034799;28;20374;-37
2020/12/20 00:33:51;;;;;;;10.53;7.80;;;8.80;90.60;;;;;;5034985;28;20231;-38
2020/12/20 00:36:17;;;;;;;8.63;7.60;;;8.80;90.60;;;;;;5034999;28;20178;-37
2020/12/20 00:38:43;;;;;;;7.87;7.07;;;8.70;90.50;;;;;;5034769;28;20181;-38
2020/12/20 00:41:10;;;;;;;7.70;6.37;;;8.70;90.40;;;;;;5035180;28;20273;-38
2020/12/20 00:43:35;;;;;;;6.13;5.53;;;8.70;90.30;;;;;;5035193;28;20469;-37
2020/12/20 00:46:01;;;;;;;7.23;6.53;;;8.70;90.30;;;;;;5034933;28;20436;-36
2020/12/20 00:48:27;;;;;;;7.20;6.50;;;8.70;90.40;;;;;;5035453;28;20170;-37
2020/12/20 00:50:52;;;;;;;7.50;6.80;;;8.70;90.20;;;;;;5035629;28;20443;-39
2020/12/20 00:53:18;;;;;;;6.43;5.83;;;8.70;89.70;;;;;;5036859;28;20248;-38
2020/12/20 00:55:43;;;;;;;8.30;6.10;;;8.70;90.10;;;;;;5034965;28;20193;-37
2020/12/20 00:58:09;;;;;;;6.77;6.07;;;8.70;90.20;;;;;;5035060;28;20190;-39
2020/12/20 01:00:34;;;;;;;6.83;6.20;;;8.60;90.10;;;;;;5034666;28;20182;-37
2020/12/20 01:03:00;;;;;;;6.57;5.80;;;8.60;90.30;;;;;;5035068;28;20306;-37
2020/12/20 01:05:26;;;;;;;6.80;6.10;;;8.60;90.70;;;;;;5034827;28;20442;-37
2020/12/20 01:07:51;;;;;;;11.50;6.83;;;8.60;90.90;;;;;;5034411;28;20569;-38
2020/12/20 01:10:17;;;;;;;7.00;5.90;;;8.50;91.00;;;;;;5034814;28;20182;-38
2020/12/20 01:12:42;;;;;;;8.77;6.70;;;8.50;91.00;;;;;;5034834;28;20182;-37
2020/12/20 01:15:08;;;;;;;6.40;5.70;;;8.60;91.00;;;;;;5034656;28;20205;-37
2020/12/20 01:17:37;;;;;;;9.23;7.50;;;8.50;90.60;;;;;;5034018;28;20287;-37
2020/12/20 01:20:04;;;;;;;6.80;5.50;;;8.50;90.00;;;;;;5034764;28;20492;-37
2020/12/20 01:22:30;;;;;;;6.90;5.60;;;8.60;89.30;;;;;;5034569;28;20487;-38
2020/12/20 01:24:56;;;;;;;6.10;5.50;;;8.60;87.90;;;;;;5034595;28;20418;-37
2020/12/20 01:27:22;;;;;;;8.13;5.83;;;8.60;87.30;;;;;;5034566;28;20862;-37
2020/12/20 01:29:47;;;;;;;7.03;5.97;;;8.60;87.00;;;;;;5034918;28;20248;-37
2020/12/20 01:32:16;;;;;;;6.50;5.90;;;8.70;87.10;;;;;;5034493;28;20200;-39
2020/12/20 01:34:43;;;;;;;6.23;5.63;;;8.60;87.50;;;;;;5034519;28;20225;-39
2020/12/20 01:37:08;;;;;;;5.90;5.00;;;8.60;87.60;;;;;;5034626;28;20434;-36
2020/12/20 01:39:34;;;;;;;6.00;5.40;;;8.60;88.30;;;;;;5033568;28;20778;-37
2020/12/20 01:42:00;;;;;;;6.03;5.43;;;8.60;88.50;;;;;;5034458;28;20225;-37
2020/12/20 01:44:25;;;;;;;5.93;5.33;;;8.60;88.50;;;;;;5031964;28;20513;-37
2020/12/20 01:46:51;;;;;;;7.47;6.67;;;8.60;88.20;;;;;;5034840;28;20182;-40
2020/12/20 01:49:17;;;;;;;8.10;5.73;;;8.70;88.20;;;;;;5030928;28;20452;-36
2020/12/20 01:51:43;;;;;;;6.17;5.57;;;8.70;88.10;;;;;;5034403;28;20430;-36
2020/12/20 01:54:09;;;;;;;6.70;6.00;;;8.70;88.40;;;;;;5034227;28;20344;-37
2020/12/20 01:56:35;;;;;;;7.40;6.30;;;8.70;87.90;;;;;;5034582;28;20243;-37
2020/12/20 01:59:01;;;;;;;7.70;6.77;;;8.70;87.80;;;;;;5031600;28;20771;-38
2020/12/20 02:01:26;;;;;;;6.93;6.23;;;8.70;87.60;;;;;;5037957;28;20179;-38
2020/12/20 02:03:52;;;;;;;6.40;5.80;;;8.70;87.60;;;;;;5040093;28;20237;-36
2020/12/20 02:06:17;;;;;;;6.70;6.10;;;8.70;87.50;;;;;;5043135;28;20258;-37
2020/12/20 02:08:43;;;;;;;6.33;5.73;;;8.70;88.20;;;;;;5044072;28;20210;-38
2020/12/20 02:11:14;;;;;;;7.20;6.30;;;8.70;88.80;;;;;;5041461;28;20577;-38
2020/12/20 02:13:44;;;;;;;6.63;5.80;;;8.70;88.90;;;;;;5040464;28;20240;-39
2020/12/20 02:16:21;;;;;;;7.47;5.70;;;8.70;88.90;;;;;;5036372;28;20448;-38
2020/12/20 02:18:47;;;;;;;6.53;5.93;;;8.70;88.90;;;;;;5040634;28;20420;-38
2020/12/20 02:21:21;;;;;;;7.17;6.13;;;8.70;89.60;;;;;;5040736;28;20611;-38
2020/12/20 02:23:47;;;;;;;6.40;5.80;;;8.70;88.10;;;;;;5032970;28;20473;-38
2020/12/20 02:26:14;;;;;;;5.93;5.40;;;8.70;87.50;;;;;;5039920;28;20436;-38
2020/12/20 02:28:52;;;;;;;5.70;5.10;;;8.70;87.30;;;;;;5040585;28;20419;-41
2020/12/20 02:31:18;;;;;;;6.70;5.20;;;8.70;87.20;;;;;;5040521;28;20421;-36
2020/12/20 02:33:44;;;;;;;7.53;5.53;;;8.70;87.40;;;;;;5039693;28;20435;-37
2020/12/20 02:36:11;;;;;;;6.93;6.00;;;8.70;87.70;;;;;;5039530;28;20896;-38
2020/12/20 02:38:37;;;;;;;5.57;5.00;;;8.70;88.20;;;;;;5040009;28;20410;-38
2020/12/20 02:41:03;;;;;;;6.20;5.60;;;8.70;90.10;;;;;;5040298;28;20437;-37
2020/12/20 02:43:28;;;;;;;6.60;6.00;;;8.60;90.60;;;;;;5039800;28;20221;-39
2020/12/20 02:45:54;;;;;;;6.23;5.40;;;8.60;90.90;;;;;;5039540;28;20525;-38
2020/12/20 02:48:20;;;;;;;5.47;4.80;;;8.60;90.90;;;;;;5039963;28;20764;-38
2020/12/20 02:50:46;;;;;;;6.37;5.77;;;8.60;90.80;;;;;;5040124;28;20245;-38
2020/12/20 02:53:12;;;;;;;6.27;4.80;;;8.50;91.10;;;;;;5041584;28;20425;-39
2020/12/20 02:55:37;;;;;;;5.20;4.70;;;8.50;90.60;;;;;;5043958;28;20855;-38
2020/12/20 02:58:03;;;;;;;6.60;5.30;;;8.50;90.30;;;;;;5041296;28;20580;-39
2020/12/20 03:00:29;;;;;;;5.10;4.60;;;8.50;89.60;;;;;;5040053;28;20573;-37
2020/12/20 03:02:54;;;;;;;5.67;5.03;;;8.50;88.40;;;;;;5039856;28;20221;-37
2020/12/20 03:05:20;;;;;;;6.40;5.40;;;8.50;87.90;;;;;;5039747;28;20254;-38
2020/12/20 03:07:46;;;;;;;7.00;6.10;;;8.50;87.60;;;;;;5039806;28;20539;-39
2020/12/20 03:10:12;;;;;;;6.60;6.00;;;8.60;87.50;;;;;;5039059;28;20189;-38
2020/12/20 03:12:38;;;;;;;6.07;5.57;;;8.60;87.10;;;;;;5039933;28;20709;-39
2020/12/20 03:15:04;;;;;;;8.93;5.60;;;8.60;86.60;;;;;;5039465;28;20566;-36
2020/12/20 03:17:30;;;;;;;5.50;5.00;;;8.60;86.90;;;;;;5039513;28;20435;-37
2020/12/20 03:19:56;;;;;;;6.30;5.30;;;8.60;87.30;;;;;;5039954;28;20575;-38
2020/12/20 03:22:21;;;;;;;5.83;5.00;;;8.60;87.80;;;;;;5039375;28;20221;-39
2020/12/20 03:24:47;;;;;;;6.37;5.50;;;8.60;88.30;;;;;;5031685;28;20178;-36
2020/12/20 03:27:12;;;;;;;6.47;5.87;;;8.60;88.20;;;;;;5039320;28;20281;-37
2020/12/20 03:29:38;;;;;;;8.50;6.30;;;8.50;88.10;;;;;;5039017;28;20582;-38
2020/12/20 03:32:03;;;;;;;6.23;5.50;;;8.50;88.20;;;;;;5040242;28;20201;-37
2020/12/20 03:34:29;;;;;;;6.17;5.60;;;8.50;88.50;;;;;;5039004;28;20522;-38
2020/12/20 03:36:55;;;;;;;5.67;5.17;;;8.50;88.90;;;;;;5039124;28;20191;-38
2020/12/20 03:39:20;;;;;;;7.47;5.90;;;8.50;89.20;;;;;;5038889;28;20186;-38
2020/12/20 03:41:46;;;;;;;5.80;4.93;;;8.50;89.30;;;;;;5038968;28;20179;-37
2020/12/20 03:44:11;;;;;;;5.93;5.27;;;8.50;89.50;;;;;;5039166;28;20190;-37
2020/12/20 03:46:37;;;;;;;7.20;6.00;;;8.50;89.60;;;;;;5038851;28;20182;-38
2020/12/20 03:49:03;;;;;;;6.70;6.10;;;8.50;89.50;;;;;;5039490;28;20543;-38
2020/12/20 03:51:29;;;;;;;8.23;7.40;;;8.50;89.10;;;;;;5038741;28;20190;-37
2020/12/20 03:53:55;;;;;;;6.20;5.60;;;8.50;88.80;;;;;;5038778;28;20435;-38
2020/12/20 03:56:20;;;;;;;8.47;5.50;;;8.50;89.00;;;;;;5039152;28;20437;-38
2020/12/20 03:58:46;;;;;;;5.33;4.83;;;8.50;89.20;;;;;;5038926;28;20182;-38
2020/12/20 04:01:12;;;;;;;6.67;5.60;;;8.50;89.00;;;;;;5038970;28;20178;-37
2020/12/20 04:03:38;;;;;;;5.67;5.17;;;8.50;88.40;;;;;;5038240;28;20490;-37
2020/12/20 04:06:03;;;;;;;5.33;4.83;;;8.50;88.40;;;;;;5038901;28;20436;-41
2020/12/20 04:08:29;;;;;;;6.10;5.50;;;8.50;89.00;;;;;;5038956;28;20265;-37
2020/12/20 04:10:54;;;;;;;6.10;5.50;;;8.50;89.00;;;;;;5038440;28;20245;-38
2020/12/20 04:13:20;;;;;;;6.40;5.80;;;8.50;88.90;;;;;;5038343;28;20482;-40
2020/12/20 04:15:45;;;;;;;7.17;6.47;;;8.50;88.80;;;;;;5039068;28;20255;-38
2020/12/20 04:18:11;;;;;;;6.33;5.63;;;8.50;88.80;;;;;;5038703;28;20183;-39
2020/12/20 04:20:36;;;;;;;6.80;6.10;;;8.50;88.80;;;;;;5037931;28;20603;-40
2020/12/20 04:23:02;;;;;;;6.40;5.80;;;8.50;89.00;;;;;;5037986;28;20214;-38
2020/12/20 04:25:28;;;;;;;6.33;5.07;;;8.50;89.10;;;;;;5038223;28;20198;-40
2020/12/20 04:27:53;;;;;;;6.20;5.70;;;8.40;89.20;;;;;;5038110;28;20181;-40
2020/12/20 04:30:19;;;;;;;7.43;6.23;;;8.40;88.90;;;;;;5038404;28;20184;-39
2020/12/20 04:32:44;;;;;;;5.53;5.03;;;8.40;88.90;;;;;;5037947;28;20265;-39
2020/12/20 04:35:10;;;;;;;5.93;5.03;;;8.40;89.20;;;;;;5038126;28;20202;-39
2020/12/20 04:37:36;;;;;;;7.13;6.07;;;8.40;89.40;;;;;;5038284;28;20265;-39
2020/12/20 04:40:04;;;;;;;6.40;5.80;;;8.40;89.50;;;;;;5037812;28;20578;-38
2020/12/20 04:42:30;;;;;;;6.70;6.00;;;8.40;89.30;;;;;;5037727;28;20504;-38
2020/12/20 04:44:56;;;;;;;5.07;4.63;;;8.40;89.00;;;;;;5036323;28;20425;-39
2020/12/20 04:47:23;;;;;;;6.80;5.70;;;8.40;89.40;;;;;;5038142;28;20840;-38
2020/12/20 04:49:52;;;;;;;5.10;4.57;;;8.40;89.70;;;;;;5037521;28;20432;-39
2020/12/20 04:52:21;;;;;;;6.07;5.47;;;8.40;89.80;;;;;;5037880;28;20495;-38
2020/12/20 04:54:47;;;;;;;6.80;5.43;;;8.40;89.90;;;;;;5030358;28;20431;-39
2020/12/20 04:57:16;;;;;;;6.23;5.60;;;8.40;89.60;;;;;;5037482;28;20428;-38
2020/12/20 04:59:42;;;;;;;6.20;5.60;;;8.40;89.60;;;;;;5037410;28;20840;-38
2020/12/20 05:02:09;;;;;;;7.37;5.50;;;8.40;89.70;;;;;;5037316;28;20468;-38
2020/12/20 05:04:36;;;;;;;6.27;5.67;;;8.40;89.90;;;;;;5037284;28;20182;-38
2020/12/20 05:07:05;;;;;;;6.73;6.13;;;8.40;88.70;;;;;;5037865;28;20705;-39
2020/12/20 05:09:31;;;;;;;8.67;5.63;;;8.40;88.80;;;;;;5037429;28;20537;-41
2020/12/20 05:11:57;;;;;;;6.40;5.90;;;8.40;89.10;;;;;;5037329;28;20425;-40
2020/12/20 05:14:31;;;;;;;6.87;6.17;;;8.30;89.20;;;;;;5034217;28;20697;-38
2020/12/20 05:16:57;;;;;;;8.97;6.27;;;8.40;90.10;;;;;;5037734;28;20228;-38
2020/12/20 05:19:32;;;;;;;5.50;5.00;;;8.40;89.40;;;;;;5037123;28;20530;-40
2020/12/20 05:22:15;;;;;;;6.17;5.57;;;8.40;88.60;;;;;;5037406;28;20185;-40
2020/12/20 05:24:42;;;;;;;7.40;5.93;;;8.40;88.30;;;;;;5036855;28;20417;-39
2020/12/20 05:27:27;;;;;;;6.03;5.53;;;8.40;88.20;;;;;;5037302;28;20437;-39
2020/12/20 05:29:53;;;;;;;7.07;6.47;;;8.40;88.20;;;;;;5037288;28;20429;-38
2020/12/20 05:32:45;;;;;;;6.50;5.90;;;8.40;88.50;;;;;;5037407;28;20429;-39
2020/12/20 05:35:15;;;;;;;6.03;5.43;;;8.40;88.40;;;;;;5038732;28;20479;-38
2020/12/20 05:37:41;;;;;;;5.70;5.10;;;8.40;88.20;;;;;;5041406;28;20437;-38
2020/12/20 05:40:09;;;;;;;6.50;5.90;;;8.50;88.20;;;;;;5041877;28;20884;-41
2020/12/20 05:42:35;;;;;;;6.70;6.10;;;8.50;88.20;;;;;;5041123;28;20468;-38
2020/12/20 05:45:17;;;;;;;6.50;5.43;;;8.50;88.10;;;;;;5041261;28;20416;-39
2020/12/20 05:47:44;;;;;;;7.40;6.30;;;8.40;88.30;;;;;;5041182;28;20417;-37
2020/12/20 05:50:12;;;;;;;6.80;6.20;;;8.40;88.40;;;;;;5036680;28;20501;-40
2020/12/20 05:52:39;;;;;;;5.90;5.40;;;8.50;88.80;;;;;;5041044;28;20543;-39
2020/12/20 05:55:11;;;;;;;7.37;6.63;;;8.40;88.50;;;;;;5041132;28;20695;-40
2020/12/20 05:57:37;;;;;;;7.30;6.43;;;8.50;88.50;;;;;;5042000;28;20421;-38
2020/12/20 06:00:04;;;;;;;8.40;7.23;;;8.40;88.10;;;;;;5039348;28;20432;-39
2020/12/20 06:02:30;;;;;;;6.10;5.60;;;8.40;87.90;;;;;;5044821;28;20312;-40
2020/12/20 06:04:56;;;;;;;6.30;5.70;;;8.40;88.00;;;;;;5042843;28;20833;-40
2020/12/20 06:07:26;;;;;;;6.23;5.67;;;8.30;88.00;;;;;;5041073;28;20236;-38
2020/12/20 06:09:59;;;;;;;6.30;5.70;;;8.30;88.20;;;;;;5040640;28;20207;-40
2020/12/20 06:12:29;;;;;;;6.77;6.07;;;8.30;88.40;;;;;;5041057;28;20479;-36
2020/12/20 06:14:57;;;;;;;7.90;7.13;;;8.30;88.70;;;;;;5040660;28;20424;-38
2020/12/20 06:17:24;;;;;;;7.40;6.70;;;8.30;89.30;;;;;;5040571;28;20520;-41
2020/12/20 06:19:58;;;;;;;7.57;6.87;;;8.20;89.70;;;;;;5040870;28;20785;-38
2020/12/20 06:22:28;;;;;;;7.63;6.70;;;8.20;90.20;;;;;;5040621;28;20484;-40
2020/12/20 06:25:11;;;;;;;7.10;6.40;;;8.20;90.40;;;;;;5033829;28;20999;-40
2020/12/20 06:27:36;;;;;;;7.27;6.30;;;8.20;90.40;;;;;;5039487;28;20914;-38
2020/12/20 06:30:06;;;;;;;6.60;6.00;;;8.20;90.40;;;;;;5040222;28;20429;-37
2020/12/20 06:32:46;;;;;;;7.03;6.33;;;8.20;90.40;;;;;;5040369;28;20194;-38
2020/12/20 06:35:22;;;;;;;7.60;6.87;;;8.20;90.60;;;;;;5029509;28;21315;-38
2020/12/20 06:37:48;;;;;;;7.50;6.33;;;8.10;90.60;;;;;;5037456;28;20506;-37
2020/12/20 06:40:19;;;;;;;7.43;6.57;;;8.10;90.50;;;;;;5022095;28;20457;-38
2020/12/20 06:42:45;;;;;;;7.43;6.73;;;8.10;90.40;;;;;;5040091;28;20749;-39
2020/12/20 06:45:15;;;;;;;7.83;6.57;;;8.10;90.40;;;;;;5038737;28;20429;-40
2020/12/20 06:47:42;;;;;;;7.80;7.10;;;8.20;90.40;;;;;;5040113;28;20187;-39
2020/12/20 06:50:08;;;;;;;7.00;6.30;;;8.10;90.30;;;;;;5039915;28;20437;-38
2020/12/20 06:52:44;;;;;;;6.20;5.60;;;8.10;90.30;;;;;;5039819;28;20583;-38
2020/12/20 06:55:11;;;;;;;6.13;5.53;;;8.10;90.40;;;;;;5034849;28;20197;-39
2020/12/20 06:58:03;;;;;;;6.73;6.03;;;8.10;90.20;;;;;;5030945;28;20436;-38
2020/12/20 07:00:54;;;;;;;7.87;5.57;;;8.10;90.10;;;;;;5039067;28;20440;-38
2020/12/20 07:03:23;;;;;;;6.10;5.30;;;8.10;90.00;;;;;;5039746;28;20476;-38
2020/12/20 07:05:52;;;;;;;5.60;5.10;;;8.10;89.70;;;;;;5031226;28;20439;-37
2020/12/20 07:08:21;;;;;;;5.20;4.70;;;8.10;89.50;;;;;;5021506;28;20623;-37
2020/12/20 07:10:49;;;;;;;6.70;5.40;;;8.20;88.90;;;;;;5039490;28;20437;-41
2020/12/20 07:13:17;;;;;;;6.77;6.07;;;8.20;89.00;;;;;;5039586;28;20428;-38
2020/12/20 07:15:50;;;;;;;6.67;6.03;;;8.30;89.10;;;;;;5022110;28;20437;-38
2020/12/20 07:18:53;;;;;;;6.17;5.57;;;8.30;88.70;;;;;;5039702;28;20482;-38
2020/12/20 07:21:19;;;;;;;6.30;5.70;;;8.30;88.40;;;;;;5021402;28;20922;-37
2020/12/20 07:24:10;;;;;;;5.97;5.37;;;8.30;88.20;;;;;;5039805;28;20521;-37
2020/12/20 07:26:36;;;;;;;7.30;6.50;;;8.40;88.40;;;;;;5039131;28;20189;-38
2020/12/20 07:29:03;;;;;;;7.43;5.97;;;8.40;88.50;;;;;;5022115;28;20731;-38
2020/12/20 07:31:29;;;;;;;6.13;5.53;;;8.40;88.10;;;;;;5039044;28;20189;-37
2020/12/20 07:33:55;;;;;;;6.27;5.67;;;8.50;88.10;;;;;;5039091;28;20421;-39
2020/12/20 07:36:24;;;;;;;5.40;4.90;;;8.50;88.10;;;;;;5038561;28;20197;-37
2020/12/20 07:38:50;;;;;;;7.60;5.37;;;8.50;87.90;;;;;;5038157;28;20424;-38
2020/12/20 07:41:17;;;;;;;5.30;4.80;;;8.60;87.70;;;;;;5038628;28;20494;-38
2020/12/20 07:43:43;;;;;;;6.53;5.43;;;8.60;87.60;;;;;;5038935;28;20881;-37
2020/12/20 07:46:11;;;;;;;6.40;4.83;;;8.70;87.60;;;;;;5038600;28;20445;-39
2020/12/20 07:48:36;;;;;;;5.70;4.97;;;8.70;87.30;;;;;;5029462;28;20432;-41
2020/12/20 07:51:14;;;;;;;5.40;4.90;;;8.80;87.40;;;;;;5037681;28;20429;-38
2020/12/20 07:53:44;;;;;;;5.70;4.50;;;8.90;87.20;;;;;;5039674;28;20451;-38
2020/12/20 07:56:10;;;;;;;4.83;4.30;;;8.90;86.90;;;;;;5039731;28;20495;-39
2020/12/20 07:58:36;;;;;;;5.30;4.80;;;9.00;86.90;;;;;;5039334;28;20421;-40
2020/12/20 08:01:06;;;;;;;4.73;4.23;;;9.10;86.40;;;;;;5038390;28;20483;-39
2020/12/20 08:03:33;;;;;;;6.30;4.63;;;9.20;86.30;;;;;;5039070;28;20473;-37
2020/12/20 08:06:09;;;;;;;4.67;4.37;;;9.30;86.10;;;;;;5021191;28;20437;-39
2020/12/20 08:08:35;;;;;;;4.30;3.90;;;9.50;85.80;;;;;;5020466;28;20426;-39
2020/12/20 08:11:03;;;;;;;5.53;4.60;;;9.60;85.70;;;;;;5038615;28;20771;-40
2020/12/20 08:13:29;;;;;;;5.07;4.57;;;9.80;85.80;;;;;;5038373;28;20421;-40
2020/12/20 08:15:55;;;;;;;5.87;4.10;;;10.00;84.10;;;;;;5038478;28;20523;-39
2020/12/20 08:18:22;;;;;;;4.60;4.20;;;10.20;83.90;;;;;;5038380;28;20425;-40
2020/12/20 08:20:48;;;;;;;5.00;4.10;;;10.60;84.20;;;;;;5038209;28;20484;-39
2020/12/20 08:23:14;;;;;;;6.43;5.47;;;10.80;83.20;;;;;;5037954;28;20468;-37
2020/12/20 08:25:40;;;;;;;5.20;4.70;;;11.00;82.10;;;;;;5020653;28;20511;-37
2020/12/20 08:28:05;;;;;;;4.97;4.47;;;11.10;81.00;;;;;;5037634;28;20170;-38
2020/12/20 08:30:31;;;;;;;4.60;4.20;;;11.20;80.40;;;;;;5019847;28;20189;-38
2020/12/20 08:32:57;;;;;;;5.13;4.43;;;11.30;80.20;;;;;;5037614;28;20474;-37
2020/12/20 08:35:23;;;;;;;5.07;4.47;;;11.50;80.10;;;;;;5037687;28;20763;-37
2020/12/20 08:37:54;;;;;;;6.17;5.37;;;11.60;79.20;;;;;;5038409;28;20186;-38
2020/12/20 08:40:20;;;;;;;6.60;5.73;;;11.80;78.80;;;;;;5037072;28;20413;-37
2020/12/20 08:42:47;;;;;;;6.03;5.33;;;11.80;78.00;;;;;;5037601;28;20461;-38
2020/12/20 08:45:23;;;;;;;6.03;5.07;;;11.90;78.00;;;;;;5037725;28;20516;-40
2020/12/20 08:47:49;;;;;;;5.70;5.20;;;11.90;77.40;;;;;;5037819;28;21045;-37
2020/12/20 08:50:25;;;;;;;6.33;5.37;;;11.90;77.40;;;;;;5037332;28;20812;-38
2020/12/20 08:53:04;;;;;;;6.07;5.53;;;12.10;76.90;;;;;;5037651;28;20431;-37
2020/12/20 08:55:30;;;;;;;5.27;4.77;;;12.20;76.40;;;;;;5037790;28;20724;-38
2020/12/20 08:58:07;;;;;;;6.40;5.80;;;12.50;75.30;;;;;;5039497;28;20444;-37
2020/12/20 09:00:34;;;;;;;5.30;4.80;;;12.90;74.90;;;;;;5040036;28;20469;-39
2020/12/20 09:03:01;;;;;;;5.80;5.20;;;13.70;74.10;;;;;;5038578;28;20892;-40
2020/12/20 09:05:28;;;;;;;5.00;4.50;;;14.90;70.40;;;;;;5037951;28;20486;-37
2020/12/20 09:07:54;;;;;;;5.23;4.73;;;16.30;66.70;;;;;;5037611;28;20421;-40
2020/12/20 09:10:27;;;;;;;6.43;5.40;;;17.60;60.80;;;;;;5037315;28;20472;-38
2020/12/20 09:13:00;;;;;;;5.73;5.13;;;18.20;56.90;;;;;;5038113;28;20499;-37
2020/12/20 09:15:28;;;;;;;5.70;5.20;;;18.70;54.80;;;;;;5036961;28;20413;-40
2020/12/20 09:17:54;;;;;;;5.00;4.60;;;19.50;53.00;;;;;;5038039;28;20417;-37
2020/12/20 09:20:24;;;;;;;5.30;4.80;;;20.10;51.10;;;;;;5032218;28;20780;-38
2020/12/20 09:22:58;;;;;;;6.17;5.53;;;20.20;48.90;;;;;;5037459;28;20238;-40
2020/12/20 09:25:34;;;;;;;7.17;5.57;;;19.80;48.40;;;;;;5037546;28;20421;-41
2020/12/20 09:28:11;;;;;;;5.67;5.17;;;19.20;49.30;;;;;;5037811;28;20449;-41
2020/12/20 09:30:50;;;;;;;5.33;4.83;;;18.60;50.20;;;;;;5023717;28;20409;-40
2020/12/20 09:33:23;;;;;;;5.73;5.23;;;17.70;52.20;;;;;;5038335;28;20424;-41
2020/12/20 09:35:52;;;;;;;6.60;5.90;;;16.80;53.20;;;;;;5037669;28;20425;-38
2020/12/20 09:38:18;;;;;;;6.60;5.90;;;16.10;54.50;;;;;;5028082;28;20524;-41
2020/12/20 09:40:44;;;;;;;9.07;6.30;;;15.50;55.30;;;;;;5037067;28;20820;-40
2020/12/20 09:43:19;;;;;;;6.03;5.43;;;15.10;56.90;;;;;;5037706;28;20214;-41
2020/12/20 09:45:45;;;;;;;6.00;5.40;;;14.80;57.40;;;;;;5030757;28;20181;-40
2020/12/20 09:48:10;;;;;;;6.93;6.13;;;14.60;58.70;;;;;;5020741;28;20413;-40
2020/12/20 09:50:36;;;;;;;6.80;6.10;;;14.50;58.50;;;;;;5037574;28;20421;-43
2020/12/20 09:53:02;;;;;;;6.47;5.87;;;14.50;59.70;;;;;;5037004;28;20210;-40
2020/12/20 09:55:29;;;;;;;5.80;5.10;;;14.50;59.70;;;;;;5036810;28;20449;-40
2020/12/20 09:57:56;;;;;;;6.70;5.30;;;14.30;59.50;;;;;;5037546;28;20225;-39
2020/12/20 10:00:21;;;;;;;5.43;4.93;;;14.20;60.50;;;;;;5037358;28;20510;-40
2020/12/20 10:02:47;;;;;;;6.20;5.70;;;14.10;60.30;;;;;;5037747;28;20888;-40
2020/12/20 10:05:13;;;;;;;6.50;5.90;;;14.00;61.40;;;;;;5036726;28;20175;-40
2020/12/20 10:07:38;;;;;;;6.13;5.53;;;13.90;62.20;;;;;;5038874;28;20178;-41
2020/12/20 10:10:05;;;;;;;5.70;5.20;;;13.90;62.30;;;;;;5039575;28;20427;-42
2020/12/20 10:12:36;;;;;;;6.77;6.07;;;13.80;62.50;;;;;;5038397;28;20205;-41
2020/12/20 10:15:02;;;;;;;7.93;6.83;;;13.80;63.40;;;;;;5037189;28;20436;-41
2020/12/20 10:17:28;;;;;;;6.80;6.20;;;13.80;62.20;;;;;;5019827;28;20437;-40
2020/12/20 10:19:53;;;;;;;6.83;6.23;;;13.60;63.30;;;;;;5039636;28;20722;-41
2020/12/20 10:22:22;;;;;;;6.77;6.17;;;13.50;64.60;;;;;;5023487;28;20301;-41
2020/12/20 10:24:48;;;;;;;7.27;6.07;;;13.50;64.70;;;;;;5040557;28;20183;-38
2020/12/20 10:27:13;;;;;;;9.10;6.10;;;13.40;64.80;;;;;;5039318;28;20790;-39
2020/12/20 10:29:39;;;;;;;7.00;6.30;;;13.40;66.50;;;;;;5039067;28;20243;-40
2020/12/20 10:32:04;;;;;;;7.17;6.47;;;13.40;67.10;;;;;;5039450;28;20471;-39
2020/12/20 10:34:30;;;;;;;6.60;5.70;;;13.40;66.50;;;;;;5039146;28;20277;-41
2020/12/20 10:36:55;;;;;;;7.23;6.57;;;13.50;66.80;;;;;;5039854;28;20175;-38
2020/12/20 10:39:21;;;;;;;6.73;6.00;;;13.50;66.70;;;;;;5039165;28;20183;-39
2020/12/20 10:41:52;;;;;;;8.10;7.30;;;13.40;65.90;;;;;;5039907;28;20261;-37
2020/12/20 10:44:18;;;;;;;9.40;6.60;;;13.30;66.40;;;;;;5040323;28;20256;-38
2020/12/20 10:46:44;;;;;;;6.97;6.30;;;13.10;67.00;;;;;;5037958;28;20824;-39
2020/12/20 10:49:09;;;;;;;7.70;6.63;;;12.90;67.40;;;;;;5022372;28;20420;-38
2020/12/20 10:51:35;;;;;;;7.77;7.00;;;12.80;68.00;;;;;;5040275;28;20238;-39
2020/12/20 10:54:00;;;;;;;6.97;6.27;;;12.90;68.40;;;;;;5039311;28;20186;-37
2020/12/20 10:56:26;;;;;;;8.03;7.03;;;13.00;68.50;;;;;;5039021;28;20639;-39
2020/12/20 10:58:51;;;;;;;6.60;6.00;;;13.60;68.60;;;;;;5037892;28;20252;-38
2020/12/20 11:01:21;;;;;;;6.00;5.40;;;14.10;66.00;;;;;;5038314;28;20186;-39
2020/12/20 11:03:47;;;;;;;7.13;6.53;;;14.40;64.30;;;;;;5038513;28;20502;-39
2020/12/20 11:06:18;;;;;;;6.63;5.90;;;14.60;64.30;;;;;;5020478;28;20441;-37
2020/12/20 11:08:44;;;;;;;8.13;5.90;;;15.00;63.60;;;;;;5021054;28;20429;-39
2020/12/20 11:11:10;;;;;;;6.00;5.40;;;15.70;62.00;;;;;;5039105;28;20436;-42
2020/12/20 11:13:38;;;;;;;6.90;6.20;;;16.30;59.80;;;;;;5037756;28;20845;-39
2020/12/20 11:16:04;;;;;;;7.57;6.00;;;16.40;59.20;;;;;;5039182;28;20475;-39
2020/12/20 11:18:29;;;;;;;7.40;6.10;;;16.30;58.80;;;;;;5039312;28;20421;-38
2020/12/20 11:20:55;;;;;;;6.00;5.40;;;16.00;59.40;;;;;;5039797;28;20245;-39
2020/12/20 11:23:20;;;;;;;6.17;5.50;;;15.70;59.60;;;;;;5037676;28;20256;-38
2020/12/20 11:25:46;;;;;;;5.60;5.10;;;15.30;60.70;;;;;;5037448;28;20625;-39
2020/12/20 11:28:12;;;;;;;5.10;4.60;;;14.90;62.20;;;;;;5038167;28;20182;-39
2020/12/20 11:30:37;;;;;;;6.20;5.10;;;14.50;63.80;;;;;;5037029;28;20182;-39
2020/12/20 11:33:03;;;;;;;5.67;5.10;;;14.30;65.10;;;;;;5029015;28;20202;-40
2020/12/20 11:35:29;;;;;;;8.47;4.83;;;14.30;66.30;;;;;;5031708;28;20186;-38
2020/12/20 11:37:54;;;;;;;5.87;5.27;;;14.40;67.10;;;;;;5036677;28;20194;-40
2020/12/20 11:40:20;;;;;;;5.43;4.60;;;14.60;67.10;;;;;;5038397;28;20178;-42
2020/12/20 11:42:45;;;;;;;5.93;4.50;;;14.90;65.70;;;;;;5037188;28;20218;-39
2020/12/20 11:45:11;;;;;;;5.23;4.10;;;15.00;65.10;;;;;;5038249;28;20248;-39
2020/12/20 11:47:40;;;;;;;4.30;3.90;;;15.10;65.30;;;;;;5038799;28;20192;-41
2020/12/20 11:50:05;;;;;;;5.13;4.40;;;15.40;65.40;;;;;;5041738;28;20202;-40
2020/12/20 11:52:37;;;;;;;6.00;5.40;;;15.70;63.90;;;;;;5023647;28;20451;-40
2020/12/20 11:55:03;;;;;;;5.97;5.00;;;15.60;63.60;;;;;;5032866;28;20247;-40
2020/12/20 11:57:34;;;;;;;6.70;4.97;;;15.50;63.70;;;;;;5038509;28;20468;-41
2020/12/20 12:00:00;;;;;;;6.50;5.43;;;15.40;64.50;;;;;;5037132;28;20425;-40
2020/12/20 12:02:25;;;;;;;9.00;5.13;;;15.10;65.40;;;;;;5037776;28;20476;-37
2020/12/20 12:04:51;;;;;;;5.13;4.60;;;14.90;66.40;;;;;;5037787;28;20236;-38
2020/12/20 12:07:16;;;;;;;5.00;4.50;;;15.00;66.90;;;;;;5038735;28;20179;-38
2020/12/20 12:09:42;;;;;;;5.13;4.50;;;15.00;67.30;;;;;;5038696;28;20265;-37
2020/12/20 12:12:08;;;;;;;5.90;5.03;;;14.80;67.30;;;;;;5038358;28;20224;-38
2020/12/20 12:14:33;;;;;;;5.47;4.80;;;14.70;68.00;;;;;;5038028;28;20186;-39
2020/12/20 12:16:59;;;;;;;4.87;4.40;;;14.50;68.80;;;;;;5038344;28;20478;-37
2020/12/20 12:19:24;;;;;;;6.60;4.80;;;14.30;69.40;;;;;;5038179;28;20256;-41
2020/12/20 12:21:50;;;;;;;5.70;4.70;;;14.00;70.70;;;;;;5037686;28;20192;-40
2020/12/20 12:24:15;;;;;;;6.83;4.60;;;13.80;71.70;;;;;;5021141;28;20214;-38
2020/12/20 12:26:46;;;;;;;5.40;4.90;;;13.60;72.30;;;;;;5020700;28;20178;-38
2020/12/20 12:29:11;;;;;;;7.70;4.90;;;13.50;73.50;;;;;;5033635;28;20362;-39
2020/12/20 12:31:37;;;;;;;5.07;4.50;;;13.40;74.80;;;;;;5037395;28;20528;-38
2020/12/20 12:34:03;;;;;;;5.37;4.87;;;13.30;75.70;;;;;;5037210;28;20194;-38
2020/12/20 12:36:29;;;;;;;6.40;5.30;;;13.20;76.20;;;;;;5038382;28;20191;-37
2020/12/20 12:38:56;;;;;;;7.37;4.40;;;13.10;76.80;;;;;;5020406;28;20201;-38
2020/12/20 12:41:29;;;;;;;5.80;4.97;;;13.10;77.40;;;;;;5037967;28;20839;-38
2020/12/20 12:43:54;;;;;;;5.40;4.90;;;13.10;77.60;;;;;;5037666;28;20880;-40
2020/12/20 12:46:20;;;;;;;5.37;4.87;;;13.00;78.20;;;;;;5038788;28;20447;-38
2020/12/20 12:48:46;;;;;;;5.90;4.93;;;12.90;78.80;;;;;;5039383;28;20194;-38
2020/12/20 12:51:11;;;;;;;5.30;4.40;;;13.00;79.40;;;;;;5039916;28;20478;-38
2020/12/20 12:53:37;;;;;;;4.20;3.50;;;13.10;80.00;;;;;;5039266;28;20313;-37
2020/12/20 12:56:09;;;;;;;5.90;4.07;;;13.00;80.40;;;;;;5038669;28;20189;-37
2020/12/20 12:58:35;;;;;;;5.23;3.37;;;13.00;81.40;;;;;;5038323;28;20463;-38